Time;durP1;ratioP1;P1;durP2;ratioP2;P2;SDS_P1;SDS_P2;PMS_P1;PMS_P2;Temp;Humidity;BMP_temperature;BMP_pressure;BME280_temperature;BME280_humidity;BME280_pressure;Samples;Min_cycle;Max_cycle;Signal;HPM_P1;HPM_P2
2022/07/23 00:00:39;;;;;;;6.13;3.90;;;;;;;30.47;34.69;96649.28;4960514;28;20034;-27
2022/07/23 00:03:05;;;;;;;5.15;3.58;;;;;;;30.47;34.66;96651.94;4955854;28;20152;-27
2022/07/23 00:05:30;;;;;;;6.65;3.75;;;;;;;30.48;34.63;96652.78;4946041;28;20022;-34
2022/07/23 00:07:56;;;;;;;6.13;3.85;;;;;;;30.49;34.56;96652.66;4949940;28;20037;-31
2022/07/23 00:10:21;;;;;;;4.65;3.70;;;;;;;30.47;34.74;96651.94;4958230;28;20029;-29
2022/07/23 00:12:46;;;;;;;5.72;3.50;;;;;;;30.47;34.34;96654.56;4957252;28;20292;-32
2022/07/23 00:15:12;;;;;;;6.07;3.58;;;;;;;30.48;34.30;96668.66;4953482;28;20972;-31
2022/07/23 00:17:37;;;;;;;4.68;3.35;;;;;;;30.49;34.67;96663.25;4954012;28;20034;-32
2022/07/23 00:20:03;;;;;;;4.22;3.50;;;;;;;30.48;34.48;96648.31;4960504;28;20119;-29
2022/07/23 00:22:29;;;;;;;5.63;3.88;;;;;;;30.49;34.49;96636.81;4955263;28;20889;-26
2022/07/23 00:24:55;;;;;;;4.68;3.47;;;;;;;30.49;34.29;96644.75;4958146;28;20052;-30
2022/07/23 00:27:20;;;;;;;5.97;3.60;;;;;;;30.50;34.62;96645.56;4952481;28;20301;-30
2022/07/23 00:29:46;;;;;;;5.85;3.65;;;;;;;30.49;34.55;96642.09;4959671;28;20033;-31
2022/07/23 00:32:11;;;;;;;4.80;3.70;;;;;;;30.49;34.63;96650.03;4958217;28;20133;-31
2022/07/23 00:34:36;;;;;;;6.93;3.70;;;;;;;30.48;34.63;96643.03;4959000;28;20034;-30
2022/07/23 00:37:02;;;;;;;7.20;4.03;;;;;;;30.49;34.95;96602.44;4956514;28;20604;-30
2022/07/23 00:39:27;;;;;;;4.93;3.67;;;;;;;30.48;34.64;96600.72;4960280;28;22271;-30
2022/07/23 00:41:53;;;;;;;7.35;3.58;;;;;;;30.47;34.75;96593.75;4959041;28;20061;-29
2022/07/23 00:44:19;;;;;;;4.10;3.17;;;;;;;30.48;34.66;96616.59;4961088;28;20034;-32
2022/07/23 00:46:53;;;;;;;7.53;3.80;;;;;;;30.47;34.93;96619.34;4961197;28;20049;-31
2022/07/23 00:49:22;;;;;;;6.45;3.35;;;;;;;30.47;34.78;96625.50;4955975;28;20109;-28
2022/07/23 00:51:48;;;;;;;5.43;3.20;;;;;;;30.47;34.88;96630.78;4965349;28;20041;-28
2022/07/23 00:54:14;;;;;;;3.75;3.00;;;;;;;30.47;34.85;96622.00;4962307;28;20050;-30
2022/07/23 00:56:41;;;;;;;4.32;3.40;;;;;;;30.47;34.85;96625.50;4965133;28;20116;-23
2022/07/23 00:59:06;;;;;;;5.88;3.30;;;;;;;30.46;34.89;96623.81;4976926;28;20658;-27
2022/07/23 01:01:32;;;;;;;3.90;3.30;;;;;;;30.47;35.16;96632.56;4954270;28;20037;-31
2022/07/23 01:03:57;;;;;;;4.97;3.55;;;;;;;30.46;34.81;96610.59;4963180;28;20438;-32
2022/07/23 01:06:23;;;;;;;3.72;2.97;;;;;;;30.46;35.16;96607.94;4955728;28;20026;-29
2022/07/23 01:08:48;;;;;;;4.30;3.20;;;;;;;30.47;34.89;96599.03;4960341;28;20079;-30
2022/07/23 01:11:13;;;;;;;3.95;3.25;;;;;;;30.48;34.94;96590.16;4955719;28;20042;-31
2022/07/23 01:13:45;;;;;;;5.15;3.22;;;;;;;30.48;35.05;96600.72;4961154;28;20037;-30
2022/07/23 01:16:10;;;;;;;3.25;2.88;;;;;;;30.49;34.74;96602.44;4951236;28;20045;-30
2022/07/23 01:18:35;;;;;;;3.80;2.95;;;;;;;30.49;34.97;96599.78;4959006;28;20037;-30
2022/07/23 01:21:01;;;;;;;3.83;2.92;;;;;;;30.48;34.90;96590.16;4959063;28;20046;-28
2022/07/23 01:23:27;;;;;;;5.78;3.30;;;;;;;30.46;34.72;96576.22;4952037;28;20047;-33
2022/07/23 01:25:52;;;;;;;7.95;3.42;;;;;;;30.46;34.85;96539.19;4950605;28;20030;-28
2022/07/23 01:28:18;;;;;;;5.22;3.53;;;;;;;30.45;35.19;96524.31;4952573;28;20364;-31
2022/07/23 01:30:43;;;;;;;3.40;3.03;;;;;;;30.43;34.88;96576.44;4944531;28;20032;-27
2022/07/23 01:33:08;;;;;;;5.22;3.15;;;;;;;30.42;35.20;96558.91;4951611;28;20049;-28
2022/07/23 01:35:34;;;;;;;4.72;3.20;;;;;;;30.42;35.13;96558.91;4948195;28;20033;-27
2022/07/23 01:37:59;;;;;;;4.30;3.30;;;;;;;30.42;35.01;96537.75;4950781;28;20830;-30
2022/07/23 01:40:25;;;;;;;5.13;3.17;;;;;;;30.42;35.16;96542.19;4955630;28;20030;-27
2022/07/23 01:42:50;;;;;;;5.18;3.20;;;;;;;30.40;35.48;96566.09;4954343;28;20132;-28
2022/07/23 01:45:15;;;;;;;6.55;3.25;;;;;;;30.41;35.12;96573.09;4952917;28;20083;-31
2022/07/23 01:47:41;;;;;;;4.43;3.08;;;;;;;30.42;35.01;96571.25;4954610;28;20499;-33
2022/07/23 01:50:06;;;;;;;5.20;3.17;;;;;;;30.42;35.30;96564.19;4958706;28;20026;-29
2022/07/23 01:52:32;;;;;;;6.63;3.13;;;;;;;30.42;35.31;96577.41;4957589;28;20036;-30
2022/07/23 01:54:57;;;;;;;3.08;2.65;;;;;;;30.43;35.01;96560.56;4956609;28;20056;-30
2022/07/23 01:57:23;;;;;;;3.78;2.90;;;;;;;30.42;35.24;96550.97;4955219;28;22545;-27
2022/07/23 01:59:48;;;;;;;3.15;2.85;;;;;;;30.44;35.64;96559.59;4953558;28;20041;-32
2022/07/23 02:02:13;;;;;;;4.75;3.25;;;;;;;30.45;35.07;96563.97;4951732;28;20034;-28
2022/07/23 02:04:39;;;;;;;5.35;3.28;;;;;;;30.46;35.44;96575.38;4951378;28;20599;-30
2022/07/23 02:07:04;;;;;;;5.07;3.20;;;;;;;30.47;35.40;96588.47;4953102;28;20665;-29
2022/07/23 02:09:30;;;;;;;3.72;2.95;;;;;;;30.48;35.19;96600.72;4948125;28;20500;-28
2022/07/23 02:11:56;;;;;;;4.30;3.25;;;;;;;30.49;35.09;96612.16;4952696;28;20044;-31
2022/07/23 02:14:21;;;;;;;3.33;2.95;;;;;;;30.49;35.42;96607.72;4952615;28;20620;-32
2022/07/23 02:16:46;;;;;;;5.60;2.75;;;;;;;30.50;34.99;96595.31;4949017;28;20556;-30
2022/07/23 02:19:12;;;;;;;3.20;2.90;;;;;;;30.49;35.06;96602.44;4947654;28;20036;-26
2022/07/23 02:21:37;;;;;;;3.67;3.10;;;;;;;30.49;35.25;96618.31;4951919;28;20963;-29
2022/07/23 02:24:04;;;;;;;4.28;3.00;;;;;;;30.49;35.28;96628.88;4950017;28;20037;-27
2022/07/23 02:26:32;;;;;;;3.88;2.83;;;;;;;30.48;35.35;96635.09;4955017;28;20117;-26
2022/07/23 02:28:57;;;;;;;3.42;3.08;;;;;;;30.50;34.96;96646.41;4949971;28;20162;-28
2022/07/23 02:31:23;;;;;;;3.63;2.83;;;;;;;30.49;35.27;96652.66;4946100;28;20025;-28
2022/07/23 02:33:48;;;;;;;5.35;3.20;;;;;;;30.48;35.23;96653.59;4947212;28;20798;-35
2022/07/23 02:36:13;;;;;;;4.18;3.08;;;;;;;30.48;34.99;96666.81;4953195;28;20716;-29
2022/07/23 02:38:39;;;;;;;4.97;2.97;;;;;;;30.48;35.06;96676.56;4949925;28;20033;-25
2022/07/23 02:41:04;;;;;;;3.72;2.90;;;;;;;30.48;34.91;96679.22;4947029;28;20037;-31
2022/07/23 02:43:29;;;;;;;3.70;2.75;;;;;;;30.47;34.92;96673.06;4957209;28;20037;-26
2022/07/23 02:45:55;;;;;;;3.88;3.00;;;;;;;30.46;35.30;96671.41;4956433;28;20049;-32
2022/07/23 02:48:20;;;;;;;4.40;2.90;;;;;;;30.47;35.18;96677.50;4955698;28;20354;-27
2022/07/23 02:50:46;;;;;;;3.83;2.90;;;;;;;30.46;34.96;96671.41;4954623;28;20115;-34
2022/07/23 02:53:11;;;;;;;3.47;2.90;;;;;;;30.47;35.27;96675.72;4960682;28;20041;-32
2022/07/23 02:55:36;;;;;;;3.70;3.05;;;;;;;30.47;35.16;96680.16;4960684;28;20030;-32
2022/07/23 02:58:02;;;;;;;3.45;3.03;;;;;;;30.47;34.86;96678.38;4951207;28;20534;-32
2022/07/23 03:00:28;;;;;;;3.83;3.00;;;;;;;30.47;35.02;96678.38;4954503;28;20032;-29
2022/07/23 03:02:53;;;;;;;3.95;3.00;;;;;;;30.47;35.29;96680.16;4959871;28;20728;-24
2022/07/23 03:05:18;;;;;;;4.90;2.90;;;;;;;30.45;35.17;96685.59;4957294;28;21077;-32
2022/07/23 03:07:44;;;;;;;4.80;2.58;;;;;;;30.47;34.88;96681.00;4955491;28;20040;-29
2022/07/23 03:10:09;;;;;;;4.10;3.13;;;;;;;30.47;35.25;96683.66;4962012;28;20041;-29
2022/07/23 03:12:34;;;;;;;4.18;3.20;;;;;;;30.47;35.09;96678.38;4960371;28;20794;-26
2022/07/23 03:15:00;;;;;;;3.13;2.80;;;;;;;30.48;35.28;96680.03;4953727;28;20034;-31
2022/07/23 03:17:25;;;;;;;4.25;3.00;;;;;;;30.47;34.75;96675.72;4955740;28;20049;-28
2022/07/23 03:19:51;;;;;;;4.90;3.53;;;;;;;30.46;35.23;96666.13;4957094;28;20026;-29
2022/07/23 03:22:16;;;;;;;7.82;3.30;;;;;;;30.46;35.37;96666.13;4957733;28;20913;-27
2022/07/23 03:24:53;;;;;;;4.93;3.53;;;;;;;30.43;34.83;96653.13;4955713;28;20116;-36
2022/07/23 03:27:20;;;;;;;3.97;3.20;;;;;;;30.44;35.15;96654.78;4960673;28;20211;-29
2022/07/23 03:29:45;;;;;;;4.30;3.38;;;;;;;30.43;34.99;96660.22;4955575;28;20064;-31
2022/07/23 03:32:10;;;;;;;3.70;2.92;;;;;;;30.42;35.08;96675.22;4956472;28;20045;-32
2022/07/23 03:34:36;;;;;;;8.20;3.10;;;;;;;30.41;34.92;96673.56;4950173;28;20029;-29
2022/07/23 03:37:01;;;;;;;4.95;3.30;;;;;;;30.42;34.89;96675.22;4961373;28;20025;-27
2022/07/23 03:39:27;;;;;;;3.70;3.33;;;;;;;30.42;35.13;96680.50;4950417;28;20109;-30
2022/07/23 03:41:52;;;;;;;4.55;3.30;;;;;;;30.40;34.72;96671.84;4955252;28;20804;-31
2022/07/23 03:44:17;;;;;;;4.45;3.25;;;;;;;30.39;34.98;96670.16;4953924;28;20041;-28
2022/07/23 03:46:43;;;;;;;3.65;3.30;;;;;;;30.32;35.22;96663.66;4955478;28;20021;-28
2022/07/23 03:49:08;;;;;;;4.97;3.38;;;;;;;30.37;34.87;96669.44;4955759;28;20802;-31
2022/07/23 03:51:33;;;;;;;3.60;3.30;;;;;;;30.38;34.95;96676.41;4959379;28;20034;-30
2022/07/23 03:53:59;;;;;;;4.07;2.90;;;;;;;30.37;34.79;96678.19;4950042;28;20034;-27
2022/07/23 03:56:24;;;;;;;3.47;2.95;;;;;;;30.39;34.95;96686.03;4955254;28;20037;-29
2022/07/23 03:58:50;;;;;;;3.75;3.30;;;;;;;30.40;34.81;96681.59;4957938;28;20045;-32
2022/07/23 04:01:15;;;;;;;7.93;3.33;;;;;;;30.41;35.06;96689.41;4962006;28;20741;-28
2022/07/23 04:03:40;;;;;;;4.28;3.10;;;;;;;30.42;34.90;96693.72;4953362;28;20045;-30
2022/07/23 04:06:06;;;;;;;3.50;2.97;;;;;;;30.44;34.92;96677.75;4952487;28;20116;-32
2022/07/23 04:08:31;;;;;;;4.13;2.97;;;;;;;30.43;34.70;96682.19;4954601;28;20033;-29
2022/07/23 04:10:57;;;;;;;5.10;3.35;;;;;;;30.45;35.01;96687.38;4948865;28;20092;-29
2022/07/23 04:13:22;;;;;;;4.35;3.03;;;;;;;30.45;34.67;96685.59;4951366;28;20810;-31
2022/07/23 04:15:48;;;;;;;7.05;3.47;;;;;;;30.45;34.91;96690.88;4947844;28;20046;-31
2022/07/23 04:18:13;;;;;;;5.55;3.20;;;;;;;30.43;34.75;96690.13;4950362;28;20041;-26
2022/07/23 04:20:39;;;;;;;4.57;3.15;;;;;;;30.44;34.88;96683.88;4956367;28;21695;-27
2022/07/23 04:23:04;;;;;;;4.97;3.22;;;;;;;30.45;34.81;96685.59;4949496;28;20044;-31
2022/07/23 04:25:29;;;;;;;4.57;3.40;;;;;;;30.43;34.84;96684.84;4950566;28;20084;-34
2022/07/23 04:27:55;;;;;;;5.15;3.08;;;;;;;30.45;34.87;96690.03;4947802;28;20053;-32
2022/07/23 04:30:20;;;;;;;4.82;3.30;;;;;;;30.43;34.81;96684.84;4947510;28;20100;-31
2022/07/23 04:32:46;;;;;;;7.68;3.63;;;;;;;30.41;34.67;96684.13;4950859;28;20030;-29
2022/07/23 04:35:11;;;;;;;8.27;3.55;;;;;;;30.42;34.80;96696.38;4954692;28;20174;-27
2022/07/23 04:37:36;;;;;;;8.45;3.63;;;;;;;30.40;34.60;96698.28;4950262;28;20928;-28
2022/07/23 04:40:02;;;;;;;6.10;3.22;;;;;;;30.40;34.84;96700.91;4950997;28;20046;-27
2022/07/23 04:42:28;;;;;;;7.13;3.63;;;;;;;30.37;34.65;96698.53;4960055;28;20696;-31
2022/07/23 04:44:53;;;;;;;5.60;3.25;;;;;;;30.38;34.52;96700.19;4956472;28;20034;-35
2022/07/23 04:47:18;;;;;;;4.38;3.38;;;;;;;30.37;34.48;96690.59;4956593;28;20291;-28
2022/07/23 04:49:44;;;;;;;5.20;3.58;;;;;;;30.38;34.64;96692.28;4955588;28;20029;-34
2022/07/23 04:52:09;;;;;;;5.90;3.20;;;;;;;30.38;34.61;96692.28;4958150;28;20555;-32
2022/07/23 04:54:34;;;;;;;3.83;3.08;;;;;;;30.35;34.82;96689.84;4961156;28;20026;-29
2022/07/23 04:57:00;;;;;;;5.38;3.30;;;;;;;30.38;34.61;96689.63;4955219;28;20080;-28
2022/07/23 04:59:25;;;;;;;5.00;3.42;;;;;;;30.37;34.53;96677.38;4959977;28;20053;-28
2022/07/23 05:01:51;;;;;;;3.70;3.35;;;;;;;30.35;34.50;96668.69;4956414;28;20021;-30
2022/07/23 05:04:16;;;;;;;4.07;3.30;;;;;;;30.37;34.74;96685.31;4963953;28;20038;-33
2022/07/23 05:06:41;;;;;;;4.10;3.47;;;;;;;30.37;34.62;96693.22;4964584;28;20026;-29
2022/07/23 05:09:07;;;;;;;8.02;3.75;;;;;;;30.35;34.72;96695.13;4959397;28;20037;-27
2022/07/23 05:11:32;;;;;;;5.57;3.42;;;;;;;30.35;34.48;96690.69;4960562;28;20104;-28
2022/07/23 05:13:57;;;;;;;4.00;3.15;;;;;;;30.35;34.37;96692.50;4964927;28;20122;-30
2022/07/23 05:16:23;;;;;;;4.55;3.28;;;;;;;30.34;34.73;96699.59;4960070;28;20181;-32
2022/07/23 05:18:48;;;;;;;7.07;3.42;;;;;;;30.34;34.69;96688.16;4953077;28;20115;-29
2022/07/23 05:21:14;;;;;;;4.68;3.67;;;;;;;30.34;34.66;96696.09;4954538;28;20033;-29
2022/07/23 05:23:39;;;;;;;5.03;3.45;;;;;;;30.33;34.76;96691.78;4950863;28;20022;-30
2022/07/23 05:26:04;;;;;;;4.45;3.47;;;;;;;30.31;34.66;96697.16;4955460;28;20037;-30
2022/07/23 05:28:30;;;;;;;3.72;3.40;;;;;;;30.32;34.61;96703.31;4947515;28;20119;-28
2022/07/23 05:30:55;;;;;;;5.55;3.63;;;;;;;30.32;34.64;96712.06;4957558;28;20030;-30
2022/07/23 05:33:20;;;;;;;5.15;3.97;;;;;;;30.32;34.49;96711.25;4952039;28;20037;-28
2022/07/23 05:35:46;;;;;;;4.95;3.63;;;;;;;30.34;34.77;96714.59;4953165;28;20343;-30
2022/07/23 05:38:11;;;;;;;5.68;3.47;;;;;;;30.34;34.66;96714.59;4947131;28;20074;-29
2022/07/23 05:40:37;;;;;;;5.30;3.70;;;;;;;30.34;34.83;96714.59;4964563;28;20037;-32
2022/07/23 05:43:02;;;;;;;6.65;3.50;;;;;;;30.35;34.83;96700.41;4967093;28;20742;-26
2022/07/23 05:45:28;;;;;;;3.67;3.33;;;;;;;30.36;34.64;96710.06;4967222;28;20029;-26
2022/07/23 05:47:53;;;;;;;6.47;3.33;;;;;;;30.38;34.89;96721.34;4957747;28;20030;-30
2022/07/23 05:50:18;;;;;;;14.95;4.18;;;;;;;30.37;34.91;96723.16;4963206;28;20041;-30
2022/07/23 05:52:44;;;;;;;8.10;3.53;;;;;;;30.38;34.73;96726.63;4962123;28;20026;-33
2022/07/23 05:55:10;;;;;;;7.68;4.20;;;;;;;30.35;34.62;96718.94;4949273;28;20029;-29
2022/07/23 05:57:35;;;;;;;8.20;4.43;;;;;;;30.35;34.34;96713.63;4955706;28;20045;-27
2022/07/23 06:00:01;;;;;;;11.32;4.30;;;;;;;30.34;34.30;96714.59;4965588;28;20156;-26
2022/07/23 06:02:26;;;;;;;9.00;4.32;;;;;;;30.30;34.47;96708.72;4960715;28;20037;-26
2022/07/23 06:04:52;;;;;;;6.25;4.22;;;;;;;30.20;34.58;96694.47;4948656;28;20045;-26
2022/07/23 06:07:17;;;;;;;5.90;4.15;;;;;;;30.28;34.34;96700.03;4955418;28;20033;-31
2022/07/23 06:09:43;;;;;;;6.28;4.30;;;;;;;30.28;34.71;96693.91;4961424;28;20872;-31
2022/07/23 06:12:08;;;;;;;5.85;4.00;;;;;;;30.27;34.61;96681.63;4960231;28;20037;-28
2022/07/23 06:14:33;;;;;;;6.72;4.50;;;;;;;30.27;34.67;96681.63;4958087;28;21109;-30
2022/07/23 06:16:59;;;;;;;6.97;3.75;;;;;;;30.27;34.42;96692.22;4954671;28;20057;-30
2022/07/23 06:19:25;;;;;;;6.38;4.32;;;;;;;30.24;34.49;96704.72;4957127;28;20416;-32
2022/07/23 06:21:50;;;;;;;6.45;3.95;;;;;;;30.23;34.84;96703.03;4953069;28;20179;-29
2022/07/23 06:24:15;;;;;;;7.22;4.53;;;;;;;30.22;34.79;96711.06;4961473;28;20088;-32
2022/07/23 06:26:41;;;;;;;9.88;4.47;;;;;;;30.19;34.54;96720.06;4967219;28;20034;-31
2022/07/23 06:29:07;;;;;;;6.32;4.78;;;;;;;30.19;34.55;96725.34;4960206;28;20033;-34
2022/07/23 06:31:32;;;;;;;6.28;4.60;;;;;;;30.16;34.70;96722.91;4960182;28;21401;-34
2022/07/23 06:33:57;;;;;;;7.60;4.50;;;;;;;30.12;34.72;96732.03;4959933;28;20874;-32
2022/07/23 06:36:23;;;;;;;7.32;4.63;;;;;;;30.07;34.62;96744.69;4961123;28;20034;-25
2022/07/23 06:38:48;;;;;;;6.25;4.72;;;;;;;30.02;34.99;96741.53;4960655;28;20034;-31
2022/07/23 06:41:14;;;;;;;7.05;4.80;;;;;;;29.95;34.91;96741.13;4964752;28;20048;-29
2022/07/23 06:43:39;;;;;;;4.70;4.07;;;;;;;29.87;34.91;96752.25;4966048;28;20104;-30
2022/07/23 06:46:04;;;;;;;7.07;4.65;;;;;;;29.82;34.77;96764.91;4962916;28;20029;-30
2022/07/23 06:48:30;;;;;;;5.70;4.38;;;;;;;29.76;34.92;96768.00;4958051;28;20119;-30
2022/07/23 06:50:55;;;;;;;7.80;4.22;;;;;;;29.69;34.63;96760.53;4958788;28;20025;-32
2022/07/23 06:53:21;;;;;;;8.68;4.80;;;;;;;29.65;34.63;96769.63;4952528;28;20037;-32
2022/07/23 06:55:46;;;;;;;5.40;4.20;;;;;;;29.59;34.78;96780.59;4957165;28;20034;-32
2022/07/23 06:58:13;;;;;;;6.07;4.93;;;;;;;29.51;34.73;96777.59;4955305;28;20489;-30
2022/07/23 07:00:39;;;;;;;4.70;4.18;;;;;;;29.52;34.87;96777.53;4952275;28;20127;-26
2022/07/23 07:03:04;;;;;;;8.35;4.78;;;;;;;29.48;34.90;96768.94;4959146;28;20025;-29
2022/07/23 07:05:30;;;;;;;6.07;4.00;;;;;;;29.44;35.18;96754.25;4956995;28;20873;-28
2022/07/23 07:07:55;;;;;;;7.28;4.10;;;;;;;29.41;34.97;96741.28;4958189;28;20120;-29
2022/07/23 07:10:21;;;;;;;8.35;4.60;;;;;;;29.41;35.18;96737.81;4960474;28;20022;-27
2022/07/23 07:12:46;;;;;;;6.05;4.18;;;;;;;29.41;35.25;96748.34;4952675;28;20041;-30
2022/07/23 07:15:11;;;;;;;6.88;4.53;;;;;;;29.39;35.15;96761.66;4949237;28;20245;-25
2022/07/23 07:17:37;;;;;;;9.48;4.80;;;;;;;29.39;35.14;96766.94;4954191;28;20033;-29
2022/07/23 07:20:03;;;;;;;7.78;4.40;;;;;;;29.38;34.95;96754.69;4951269;28;20034;-31
2022/07/23 07:22:28;;;;;;;7.72;4.57;;;;;;;29.39;34.95;96756.38;4956286;28;20148;-26
2022/07/23 07:24:54;;;;;;;10.70;4.32;;;;;;;29.40;35.12;96763.34;4958130;28;20045;-31
2022/07/23 07:27:19;;;;;;;10.13;4.32;;;;;;;29.41;35.05;96770.31;4955202;28;20029;-29
2022/07/23 07:29:44;;;;;;;9.52;4.55;;;;;;;29.41;35.27;96774.75;4958209;28;20030;-31
2022/07/23 07:32:10;;;;;;;8.05;3.97;;;;;;;29.42;35.10;96787.84;4947949;28;20091;-29
2022/07/23 07:34:35;;;;;;;14.70;4.60;;;;;;;29.43;34.98;96789.53;4946950;28;20842;-28
2022/07/23 07:37:01;;;;;;;7.82;4.50;;;;;;;29.40;34.86;96787.09;4937541;28;20030;-27
2022/07/23 07:39:26;;;;;;;8.80;4.35;;;;;;;29.38;35.06;96802.22;4948192;28;20061;-30
2022/07/23 07:41:51;;;;;;;7.20;4.25;;;;;;;29.37;35.09;96810.22;4952819;28;20041;-25
2022/07/23 07:44:17;;;;;;;6.65;4.43;;;;;;;29.31;35.33;96800.94;4953449;28;20778;-27
2022/07/23 07:46:42;;;;;;;11.63;4.65;;;;;;;29.27;35.27;96810.00;4954928;28;20034;-29
2022/07/23 07:49:08;;;;;;;5.63;4.28;;;;;;;29.23;35.41;96822.56;4963214;28;20034;-33
2022/07/23 07:51:33;;;;;;;6.15;4.18;;;;;;;29.15;35.31;96828.38;4955820;28;20034;-31
2022/07/23 07:53:58;;;;;;;9.25;4.55;;;;;;;29.12;35.36;96833.84;4954872;28;20722;-28
2022/07/23 07:56:24;;;;;;;5.00;4.10;;;;;;;29.08;35.47;96833.19;4953407;28;20061;-26
2022/07/23 07:58:49;;;;;;;7.35;3.92;;;;;;;29.06;35.11;96840.34;4955922;28;20045;-31
2022/07/23 08:01:14;;;;;;;5.85;4.07;;;;;;;29.06;35.38;96844.81;4956544;28;20026;-25
2022/07/23 08:03:40;;;;;;;4.70;3.88;;;;;;;29.06;35.09;96842.16;4947862;28;20696;-26
2022/07/23 08:06:06;;;;;;;10.35;4.15;;;;;;;29.07;35.28;96828.03;4947067;28;20022;-31
2022/07/23 08:08:31;;;;;;;5.10;3.95;;;;;;;29.09;35.15;96826.13;4944659;28;20176;-29
2022/07/23 08:10:56;;;;;;;10.13;4.10;;;;;;;29.13;35.13;96834.69;4951704;28;20048;-28
2022/07/23 08:13:22;;;;;;;8.02;4.10;;;;;;;29.18;35.03;96832.59;4955566;28;20058;-33
2022/07/23 08:15:47;;;;;;;5.45;4.20;;;;;;;29.20;35.17;96826.25;4960944;28;20156;-28
2022/07/23 08:18:13;;;;;;;6.28;4.05;;;;;;;29.26;35.18;96826.78;4963436;28;20029;-27
2022/07/23 08:20:38;;;;;;;11.05;4.25;;;;;;;29.30;35.11;96829.09;4958497;28;20060;-25
2022/07/23 08:23:05;;;;;;;7.90;4.10;;;;;;;29.35;34.87;96828.81;4965067;28;20033;-30
2022/07/23 08:25:32;;;;;;;6.38;4.22;;;;;;;29.39;34.81;96822.38;4961259;28;20053;-29
2022/07/23 08:27:58;;;;;;;6.43;4.10;;;;;;;29.44;34.84;96822.03;4960516;28;20443;-29
2022/07/23 08:30:24;;;;;;;8.63;3.90;;;;;;;29.46;34.59;96821.03;4957939;28;20104;-29
2022/07/23 08:33:03;;;;;;;8.88;3.95;;;;;;;29.51;34.73;96822.47;4960630;28;20038;-29
2022/07/23 08:35:52;;;;;;;9.43;4.78;;;;;;;29.55;34.55;96813.44;4966363;28;20029;-30
2022/07/23 08:38:19;;;;;;;6.72;4.35;;;;;;;29.58;34.69;96821.16;4951631;28;20046;-26
2022/07/23 08:40:46;;;;;;;6.63;4.32;;;;;;;29.62;34.68;96824.41;4960819;28;20399;-29
2022/07/23 08:43:13;;;;;;;5.55;4.10;;;;;;;29.63;34.61;96821.66;4958160;28;20022;-26
2022/07/23 08:45:43;;;;;;;4.70;3.90;;;;;;;29.67;34.69;96823.16;4962130;28;20096;-36
2022/07/23 08:48:12;;;;;;;11.05;4.20;;;;;;;29.69;34.57;96818.63;4964908;28;20045;-28
2022/07/23 08:50:37;;;;;;;5.35;4.00;;;;;;;29.71;34.60;96824.63;4963939;28;20144;-27
2022/07/23 08:53:05;;;;;;;5.57;3.70;;;;;;;29.73;34.31;96830.66;4959730;28;20032;-27
2022/07/23 08:55:30;;;;;;;7.03;3.65;;;;;;;29.75;34.54;96833.19;4962506;28;20030;-28
2022/07/23 08:57:56;;;;;;;4.68;3.63;;;;;;;29.77;34.58;96833.94;4962677;28;20048;-26
2022/07/23 09:00:21;;;;;;;6.82;4.07;;;;;;;29.80;34.41;96830.22;4959731;28;20030;-30
2022/07/23 09:02:47;;;;;;;5.60;4.10;;;;;;;29.82;34.54;96826.53;4959232;28;20033;-29
2022/07/23 09:05:13;;;;;;;7.13;4.07;;;;;;;29.84;34.13;96822.00;4959176;28;20040;-27
2022/07/23 09:08:06;;;;;;;6.57;3.95;;;;;;;29.86;34.58;96827.16;4957621;28;20030;-26
2022/07/23 09:10:45;;;;;;;4.47;3.42;;;;;;;29.87;34.23;96818.31;4960289;28;20534;-29
2022/07/23 09:13:27;;;;;;;4.60;3.60;;;;;;;29.88;34.16;96821.78;4959610;28;20038;-30
2022/07/23 09:15:53;;;;;;;4.20;3.22;;;;;;;29.89;34.09;96821.66;4960667;28;20061;-31
2022/07/23 09:18:19;;;;;;;5.60;3.70;;;;;;;29.90;34.52;96818.06;4964058;28;20109;-30
2022/07/23 09:20:44;;;;;;;5.00;3.80;;;;;;;29.92;34.39;96810.88;4962104;28;20048;-34
2022/07/23 09:23:10;;;;;;;4.32;3.50;;;;;;;29.91;34.20;96809.22;4966108;28;20114;-27
2022/07/23 09:25:35;;;;;;;4.18;3.65;;;;;;;29.94;34.34;96810.78;4969300;28;20022;-28
2022/07/23 09:28:02;;;;;;;3.70;3.15;;;;;;;29.94;34.34;96801.03;4963152;28;20037;-28
2022/07/23 09:30:29;;;;;;;7.63;3.42;;;;;;;29.96;34.42;96807.09;4961669;28;20034;-31
2022/07/23 09:33:08;;;;;;;6.03;3.47;;;;;;;29.97;34.34;96806.13;4961885;28;20034;-28
2022/07/23 09:35:48;;;;;;;3.40;3.10;;;;;;;29.97;34.43;96798.19;4953850;28;20034;-27
2022/07/23 09:38:14;;;;;;;4.95;3.60;;;;;;;30.01;34.14;96798.00;4961476;28;20128;-31
2022/07/23 09:40:39;;;;;;;4.13;3.20;;;;;;;30.02;34.47;96797.88;4963460;28;20937;-30
2022/07/23 09:43:04;;;;;;;4.88;3.30;;;;;;;30.03;34.24;96798.72;4958515;28;20879;-32
2022/07/23 09:45:30;;;;;;;3.63;3.00;;;;;;;30.03;34.25;96798.72;4956574;28;20761;-29
2022/07/23 09:48:14;;;;;;;4.15;2.92;;;;;;;30.05;34.28;96795.00;4956667;28;20041;-33
2022/07/23 09:50:43;;;;;;;3.92;3.38;;;;;;;30.06;34.43;96798.50;4959952;28;20030;-30
2022/07/23 09:53:09;;;;;;;3.67;3.03;;;;;;;30.06;34.31;96791.41;4958823;28;20247;-29
2022/07/23 09:55:38;;;;;;;4.68;3.45;;;;;;;30.08;34.40;96793.94;4958826;28;21018;-29
2022/07/23 09:58:13;;;;;;;3.97;3.13;;;;;;;30.09;34.17;96800.94;4960055;28;20025;-28
2022/07/23 10:00:38;;;;;;;5.32;3.17;;;;;;;30.10;34.33;96792.88;4957771;28;20049;-28
2022/07/23 10:03:03;;;;;;;3.85;2.97;;;;;;;30.11;34.58;96796.38;4962115;28;20025;-27
2022/07/23 10:05:29;;;;;;;3.70;2.88;;;;;;;30.12;34.39;96787.50;4954835;28;20044;-27
2022/07/23 10:07:54;;;;;;;3.85;3.40;;;;;;;30.13;34.21;96802.41;4957286;28;20104;-29
2022/07/23 10:10:21;;;;;;;3.92;2.85;;;;;;;30.14;34.19;96793.56;4956520;28;20783;-31
2022/07/23 10:15:15;;;;;;;3.35;2.83;;;;;;;30.16;34.31;96799.56;4960784;28;20034;-29
2022/07/23 10:17:40;;;;;;;6.57;3.00;;;;;;;30.16;34.47;96796.91;4955132;28;20096;-32
2022/07/23 10:20:06;;;;;;;3.70;2.97;;;;;;;30.18;34.15;96795.03;4959885;28;20597;-29
2022/07/23 10:22:44;;;;;;;3.17;2.72;;;;;;;30.19;34.34;96795.84;4959072;28;20029;-31
2022/07/23 10:25:24;;;;;;;3.60;3.00;;;;;;;30.19;34.24;96802.00;4955318;28;20484;-30
2022/07/23 10:28:04;;;;;;;4.85;2.90;;;;;;;30.20;34.44;96798.38;4943005;28;20022;-28
2022/07/23 10:31:01;;;;;;;3.78;2.92;;;;;;;30.21;34.42;96799.25;4954106;28;20037;-28
2022/07/23 10:33:32;;;;;;;3.35;2.63;;;;;;;30.21;34.47;96800.06;4954703;28;20248;-30
2022/07/23 10:36:17;;;;;;;3.38;2.80;;;;;;;30.22;34.38;96800.94;4957333;28;20127;-30
2022/07/23 10:39:05;;;;;;;4.75;2.83;;;;;;;30.22;34.09;96796.50;4957284;28;20029;-30
2022/07/23 10:41:40;;;;;;;3.60;2.85;;;;;;;30.24;34.19;96799.00;4960938;28;20045;-31
2022/07/23 10:44:09;;;;;;;3.17;2.67;;;;;;;30.23;34.20;96792.91;4964953;28;20030;-28
2022/07/23 10:46:53;;;;;;;3.42;2.95;;;;;;;30.23;34.26;96781.47;4962255;28;20034;-30
2022/07/23 10:49:31;;;;;;;3.50;3.15;;;;;;;30.23;34.22;96784.97;4961453;28;20421;-29
2022/07/23 10:52:14;;;;;;;3.22;2.85;;;;;;;30.24;34.42;96784.00;4959664;28;20609;-29
2022/07/23 10:54:40;;;;;;;3.08;2.70;;;;;;;30.25;34.21;96780.41;4962404;28;20553;-28
2022/07/23 10:57:07;;;;;;;3.83;2.75;;;;;;;30.25;34.23;96785.69;4978319;28;20036;-27
2022/07/23 11:00:09;;;;;;;3.67;2.78;;;;;;;30.28;34.51;96789.06;4958288;28;20083;-26
2022/07/23 11:02:34;;;;;;;3.20;2.90;;;;;;;30.28;34.34;96783.78;4957686;28;20116;-29
2022/07/23 11:05:11;;;;;;;4.55;2.80;;;;;;;30.28;34.40;96784.63;4961873;28;20120;-28
2022/07/23 11:07:37;;;;;;;3.58;2.70;;;;;;;30.29;34.38;96783.69;4962527;28;20022;-27
2022/07/23 11:10:03;;;;;;;3.72;2.90;;;;;;;30.30;34.15;96781.88;4961572;28;20160;-30
2022/07/23 11:12:28;;;;;;;3.00;2.70;;;;;;;30.31;34.54;96779.13;4964958;28;20100;-29
2022/07/23 11:15:06;;;;;;;2.95;2.50;;;;;;;30.32;34.41;96786.09;4961003;28;21412;-26
2022/07/23 11:17:56;;;;;;;2.83;2.53;;;;;;;30.33;34.49;96787.75;4959072;28;20329;-32
2022/07/23 11:20:22;;;;;;;3.60;2.45;;;;;;;30.34;34.29;96783.34;4962383;28;20034;-27
2022/07/23 11:22:52;;;;;;;3.20;2.70;;;;;;;30.35;34.23;96790.31;4964296;28;20041;-30
2022/07/23 11:25:29;;;;;;;2.97;2.67;;;;;;;30.36;34.24;96784.09;4964304;28;20049;-31
2022/07/23 11:27:55;;;;;;;3.30;2.78;;;;;;;30.36;34.53;96781.44;4968797;28;20034;-27
2022/07/23 11:30:26;;;;;;;3.00;2.70;;;;;;;30.36;34.20;96776.16;4955353;28;20037;-34
2022/07/23 11:32:52;;;;;;;;;;;;;;;30.37;34.15;96770.72;4954748;28;20057;-30
2022/07/23 11:35:23;;;;;;;2.80;2.47;;;;;;;30.38;34.29;96777.72;4956619;28;20576;-30